sensor_id;sensor_type;location;lat;lon;timestamp;temperature;humidity
15459;DHT22;59054;48.692;9.136;2022-07-23T00:02:01;23.20;85.50
15459;DHT22;59054;48.692;9.136;2022-07-23T00:04:28;23.20;84.80
15459;DHT22;59054;48.692;9.136;2022-07-23T00:06:55;23.20;83.80
15459;DHT22;59054;48.692;9.136;2022-07-23T00:09:23;23.20;83.30
15459;DHT22;59054;48.692;9.136;2022-07-23T00:11:50;23.20;82.70
15459;DHT22;59054;48.692;9.136;2022-07-23T00:14:17;23.10;81.00
15459;DHT22;59054;48.692;9.136;2022-07-23T00:16:44;23.10;80.60
15459;DHT22;59054;48.692;9.136;2022-07-23T00:19:10;23.10;80.30
15459;DHT22;59054;48.692;9.136;2022-07-23T00:21:37;23.20;80.30
15459;DHT22;59054;48.692;9.136;2022-07-23T00:24:05;23.20;81.10
15459;DHT22;59054;48.692;9.136;2022-07-23T00:26:33;23.10;80.50
15459;DHT22;59054;48.692;9.136;2022-07-23T00:29:00;23.10;80.90
15459;DHT22;59054;48.692;9.136;2022-07-23T00:31:27;23.00;83.10
15459;DHT22;59054;48.692;9.136;2022-07-23T00:33:54;23.00;82.70
15459;DHT22;59054;48.692;9.136;2022-07-23T00:36:22;22.90;82.60
15459;DHT22;59054;48.692;9.136;2022-07-23T00:38:49;22.90;82.90
15459;DHT22;59054;48.692;9.136;2022-07-23T00:41:15;22.80;83.30
15459;DHT22;59054;48.692;9.136;2022-07-23T00:43:44;22.90;83.90
15459;DHT22;59054;48.692;9.136;2022-07-23T00:46:11;22.90;84.90
15459;DHT22;59054;48.692;9.136;2022-07-23T00:48:38;22.80;83.60
15459;DHT22;59054;48.692;9.136;2022-07-23T00:51:05;22.80;83.50
15459;DHT22;59054;48.692;9.136;2022-07-23T00:53:32;22.90;83.40
15459;DHT22;59054;48.692;9.136;2022-07-23T00:55:59;22.90;83.70
15459;DHT22;59054;48.692;9.136;2022-07-23T00:58:26;22.70;83.70
15459;DHT22;59054;48.692;9.136;2022-07-23T01:00:54;22.70;83.80
15459;DHT22;59054;48.692;9.136;2022-07-23T01:03:21;22.60;84.10
15459;DHT22;59054;48.692;9.136;2022-07-23T01:05:49;22.60;84.00
15459;DHT22;59054;48.692;9.136;2022-07-23T01:08:16;22.50;84.20
15459;DHT22;59054;48.692;9.136;2022-07-23T01:10:43;22.60;85.30
15459;DHT22;59054;48.692;9.136;2022-07-23T01:13:10;22.70;84.00
15459;DHT22;59054;48.692;9.136;2022-07-23T01:15:38;22.70;83.20
15459;DHT22;59054;48.692;9.136;2022-07-23T01:18:07;22.70;82.50
15459;DHT22;59054;48.692;9.136;2022-07-23T01:20:35;22.70;82.50
15459;DHT22;59054;48.692;9.136;2022-07-23T01:23:03;22.70;82.10
15459;DHT22;59054;48.692;9.136;2022-07-23T01:25:30;22.70;82.20
15459;DHT22;59054;48.692;9.136;2022-07-23T01:27:57;22.60;82.20
15459;DHT22;59054;48.692;9.136;2022-07-23T01:30:24;22.70;82.60
15459;DHT22;59054;48.692;9.136;2022-07-23T01:32:51;22.70;83.70
15459;DHT22;59054;48.692;9.136;2022-07-23T01:35:18;22.70;83.40
15459;DHT22;59054;48.692;9.136;2022-07-23T01:37:45;22.70;83.30
15459;DHT22;59054;48.692;9.136;2022-07-23T01:40:13;22.70;83.70
15459;DHT22;59054;48.692;9.136;2022-07-23T01:42:40;22.60;85.30
15459;DHT22;59054;48.692;9.136;2022-07-23T01:45:07;22.40;86.90
15459;DHT22;59054;48.692;9.136;2022-07-23T01:47:34;22.40;89.00
15459;DHT22;59054;48.692;9.136;2022-07-23T01:50:01;22.30;88.00
15459;DHT22;59054;48.692;9.136;2022-07-23T01:52:28;22.30;88.20
15459;DHT22;59054;48.692;9.136;2022-07-23T01:54:55;22.10;89.10
15459;DHT22;59054;48.692;9.136;2022-07-23T01:57:23;22.20;89.80
15459;DHT22;59054;48.692;9.136;2022-07-23T01:59:50;22.20;90.10
15459;DHT22;59054;48.692;9.136;2022-07-23T02:02:17;22.20;90.30
15459;DHT22;59054;48.692;9.136;2022-07-23T02:04:44;22.20;90.40
15459;DHT22;59054;48.692;9.136;2022-07-23T02:07:11;22.10;90.50
15459;DHT22;59054;48.692;9.136;2022-07-23T02:09:38;22.10;90.90
15459;DHT22;59054;48.692;9.136;2022-07-23T02:12:05;22.20;91.40
15459;DHT22;59054;48.692;9.136;2022-07-23T02:14:33;22.00;91.30
15459;DHT22;59054;48.692;9.136;2022-07-23T02:17:00;22.00;91.60
15459;DHT22;59054;48.692;9.136;2022-07-23T02:19:27;21.90;92.20
15459;DHT22;59054;48.692;9.136;2022-07-23T02:21:54;21.90;92.10
15459;DHT22;59054;48.692;9.136;2022-07-23T02:24:21;21.90;92.40
15459;DHT22;59054;48.692;9.136;2022-07-23T02:26:48;21.90;92.00
15459;DHT22;59054;48.692;9.136;2022-07-23T02:29:15;21.80;92.60
15459;DHT22;59054;48.692;9.136;2022-07-23T02:31:44;21.80;92.00
15459;DHT22;59054;48.692;9.136;2022-07-23T02:34:12;21.90;92.10
15459;DHT22;59054;48.692;9.136;2022-07-23T02:36:39;21.90;91.90
15459;DHT22;59054;48.692;9.136;2022-07-23T02:39:06;21.90;91.90
15459;DHT22;59054;48.692;9.136;2022-07-23T02:41:32;22.00;91.50
15459;DHT22;59054;48.692;9.136;2022-07-23T02:43:59;21.90;91.90
15459;DHT22;59054;48.692;9.136;2022-07-23T02:46:26;22.00;91.80
15459;DHT22;59054;48.692;9.136;2022-07-23T02:48:55;21.90;91.50
15459;DHT22;59054;48.692;9.136;2022-07-23T02:51:22;22.00;91.80
15459;DHT22;59054;48.692;9.136;2022-07-23T02:53:48;22.10;91.30
15459;DHT22;59054;48.692;9.136;2022-07-23T02:56:15;22.00;91.30
15459;DHT22;59054;48.692;9.136;2022-07-23T02:58:42;22.00;91.50
15459;DHT22;59054;48.692;9.136;2022-07-23T03:01:09;22.00;92.20
15459;DHT22;59054;48.692;9.136;2022-07-23T03:03:36;22.00;91.90
15459;DHT22;59054;48.692;9.136;2022-07-23T03:06:05;22.00;91.60
15459;DHT22;59054;48.692;9.136;2022-07-23T03:08:32;22.10;92.10
15459;DHT22;59054;48.692;9.136;2022-07-23T03:10:59;22.10;91.80
15459;DHT22;59054;48.692;9.136;2022-07-23T03:13:26;22.10;92.30
15459;DHT22;59054;48.692;9.136;2022-07-23T03:15:53;22.00;92.70
15459;DHT22;59054;48.692;9.136;2022-07-23T03:18:20;22.00;92.90
15459;DHT22;59054;48.692;9.136;2022-07-23T03:20:46;22.10;92.60
15459;DHT22;59054;48.692;9.136;2022-07-23T03:23:16;22.10;91.90
15459;DHT22;59054;48.692;9.136;2022-07-23T03:25:43;22.10;93.50
15459;DHT22;59054;48.692;9.136;2022-07-23T03:28:09;22.10;93.10
15459;DHT22;59054;48.692;9.136;2022-07-23T03:30:36;22.10;92.70
15459;DHT22;59054;48.692;9.136;2022-07-23T03:33:03;22.10;92.80
15459;DHT22;59054;48.692;9.136;2022-07-23T03:35:30;22.20;92.40
15459;DHT22;59054;48.692;9.136;2022-07-23T03:37:57;22.10;92.40
15459;DHT22;59054;48.692;9.136;2022-07-23T03:40:25;22.00;93.00
15459;DHT22;59054;48.692;9.136;2022-07-23T03:42:52;21.70;94.40
15459;DHT22;59054;48.692;9.136;2022-07-23T03:45:19;21.80;94.70
15459;DHT22;59054;48.692;9.136;2022-07-23T03:47:46;22.00;94.80
15459;DHT22;59054;48.692;9.136;2022-07-23T03:50:13;22.00;94.70
15459;DHT22;59054;48.692;9.136;2022-07-23T03:52:40;21.90;94.90
15459;DHT22;59054;48.692;9.136;2022-07-23T03:55:07;21.90;94.30
15459;DHT22;59054;48.692;9.136;2022-07-23T03:57:35;21.60;94.50
15459;DHT22;59054;48.692;9.136;2022-07-23T04:00:03;21.40;94.80
15459;DHT22;59054;48.692;9.136;2022-07-23T04:02:30;21.50;94.60
15459;DHT22;59054;48.692;9.136;2022-07-23T04:04:57;21.30;95.10
15459;DHT22;59054;48.692;9.136;2022-07-23T04:07:25;21.10;95.70
15459;DHT22;59054;48.692;9.136;2022-07-23T04:09:52;21.20;96.30
15459;DHT22;59054;48.692;9.136;2022-07-23T04:12:19;21.40;96.30
15459;DHT22;59054;48.692;9.136;2022-07-23T04:14:47;21.50;96.10
15459;DHT22;59054;48.692;9.136;2022-07-23T04:17:14;21.30;96.00
15459;DHT22;59054;48.692;9.136;2022-07-23T04:19:41;21.10;96.70
15459;DHT22;59054;48.692;9.136;2022-07-23T04:22:09;21.10;97.10
15459;DHT22;59054;48.692;9.136;2022-07-23T04:24:37;21.00;98.10
15459;DHT22;59054;48.692;9.136;2022-07-23T04:27:05;21.00;98.20
15459;DHT22;59054;48.692;9.136;2022-07-23T04:29:32;20.80;98.20
15459;DHT22;59054;48.692;9.136;2022-07-23T04:32:00;21.10;98.30
15459;DHT22;59054;48.692;9.136;2022-07-23T04:34:27;21.10;97.90
15459;DHT22;59054;48.692;9.136;2022-07-23T04:36:54;21.10;97.70
15459;DHT22;59054;48.692;9.136;2022-07-23T04:39:21;21.10;98.00
15459;DHT22;59054;48.692;9.136;2022-07-23T04:41:48;21.10;98.50
15459;DHT22;59054;48.692;9.136;2022-07-23T04:44:15;21.20;97.70
15459;DHT22;59054;48.692;9.136;2022-07-23T04:46:41;21.20;97.90
15459;DHT22;59054;48.692;9.136;2022-07-23T04:49:10;21.00;98.80
15459;DHT22;59054;48.692;9.136;2022-07-23T04:51:37;21.10;99.00
15459;DHT22;59054;48.692;9.136;2022-07-23T04:54:04;21.20;97.80
15459;DHT22;59054;48.692;9.136;2022-07-23T04:56:30;21.30;97.70
15459;DHT22;59054;48.692;9.136;2022-07-23T04:58:57;21.40;97.40
15459;DHT22;59054;48.692;9.136;2022-07-23T05:01:24;21.40;97.40
15459;DHT22;59054;48.692;9.136;2022-07-23T05:03:51;21.30;97.80
15459;DHT22;59054;48.692;9.136;2022-07-23T05:06:20;21.30;98.30
15459;DHT22;59054;48.692;9.136;2022-07-23T05:08:47;21.30;98.20
15459;DHT22;59054;48.692;9.136;2022-07-23T05:11:14;21.30;98.00
15459;DHT22;59054;48.692;9.136;2022-07-23T05:13:40;21.30;98.60
15459;DHT22;59054;48.692;9.136;2022-07-23T05:16:07;21.20;98.70
15459;DHT22;59054;48.692;9.136;2022-07-23T05:18:34;21.20;98.70
15459;DHT22;59054;48.692;9.136;2022-07-23T05:21:01;21.20;98.50
15459;DHT22;59054;48.692;9.136;2022-07-23T05:23:29;21.30;98.40
15459;DHT22;59054;48.692;9.136;2022-07-23T05:25:56;21.30;98.50
15459;DHT22;59054;48.692;9.136;2022-07-23T05:28:23;21.40;98.40
15459;DHT22;59054;48.692;9.136;2022-07-23T05:30:50;21.50;98.00
15459;DHT22;59054;48.692;9.136;2022-07-23T05:33:18;21.50;98.20
15459;DHT22;59054;48.692;9.136;2022-07-23T05:35:45;21.40;98.50
15459;DHT22;59054;48.692;9.136;2022-07-23T05:38:12;21.50;98.90
15459;DHT22;59054;48.692;9.136;2022-07-23T05:40:40;21.40;99.10
15459;DHT22;59054;48.692;9.136;2022-07-23T05:43:07;21.70;98.70
15459;DHT22;59054;48.692;9.136;2022-07-23T05:45:34;21.70;98.70
15459;DHT22;59054;48.692;9.136;2022-07-23T05:48:01;21.70;98.40
15459;DHT22;59054;48.692;9.136;2022-07-23T05:50:28;21.70;98.50
15459;DHT22;59054;48.692;9.136;2022-07-23T05:52:55;21.80;98.30
15459;DHT22;59054;48.692;9.136;2022-07-23T05:55:21;21.70;98.40
15459;DHT22;59054;48.692;9.136;2022-07-23T05:57:50;21.80;98.40
15459;DHT22;59054;48.692;9.136;2022-07-23T06:00:17;21.90;98.60
15459;DHT22;59054;48.692;9.136;2022-07-23T06:02:44;21.80;98.50
15459;DHT22;59054;48.692;9.136;2022-07-23T06:05:12;21.80;98.60
15459;DHT22;59054;48.692;9.136;2022-07-23T06:07:39;21.80;98.80
15459;DHT22;59054;48.692;9.136;2022-07-23T06:10:07;21.80;99.10
15459;DHT22;59054;48.692;9.136;2022-07-23T06:12:34;22.00;99.30
15459;DHT22;59054;48.692;9.136;2022-07-23T06:15:03;22.10;99.30
15459;DHT22;59054;48.692;9.136;2022-07-23T06:17:30;22.00;98.40
15459;DHT22;59054;48.692;9.136;2022-07-23T06:19:57;22.00;98.70
15459;DHT22;59054;48.692;9.136;2022-07-23T06:22:24;22.20;99.00
15459;DHT22;59054;48.692;9.136;2022-07-23T06:24:51;22.30;99.20
15459;DHT22;59054;48.692;9.136;2022-07-23T06:27:18;22.30;99.00
15459;DHT22;59054;48.692;9.136;2022-07-23T06:29:45;22.40;99.00
15459;DHT22;59054;48.692;9.136;2022-07-23T06:32:13;22.80;99.20
15459;DHT22;59054;48.692;9.136;2022-07-23T06:34:40;23.10;98.40
15459;DHT22;59054;48.692;9.136;2022-07-23T06:37:10;23.20;98.10
15459;DHT22;59054;48.692;9.136;2022-07-23T06:39:37;23.20;97.30
15459;DHT22;59054;48.692;9.136;2022-07-23T06:42:04;23.30;97.40
15459;DHT22;59054;48.692;9.136;2022-07-23T06:44:31;23.40;97.00
15459;DHT22;59054;48.692;9.136;2022-07-23T06:46:58;23.40;96.60
15459;DHT22;59054;48.692;9.136;2022-07-23T06:49:26;23.40;96.50
15459;DHT22;59054;48.692;9.136;2022-07-23T06:51:53;23.40;96.80
15459;DHT22;59054;48.692;9.136;2022-07-23T06:54:20;23.50;96.40
15459;DHT22;59054;48.692;9.136;2022-07-23T06:56:47;23.60;96.50
15459;DHT22;59054;48.692;9.136;2022-07-23T06:59:14;23.50;96.90
15459;DHT22;59054;48.692;9.136;2022-07-23T07:01:41;23.60;96.30
15459;DHT22;59054;48.692;9.136;2022-07-23T07:04:08;23.60;96.50
15459;DHT22;59054;48.692;9.136;2022-07-23T07:06:36;23.60;95.30
15459;DHT22;59054;48.692;9.136;2022-07-23T07:09:03;23.60;94.10
15459;DHT22;59054;48.692;9.136;2022-07-23T07:11:30;23.60;94.50
15459;DHT22;59054;48.692;9.136;2022-07-23T07:13:57;23.50;94.40
15459;DHT22;59054;48.692;9.136;2022-07-23T07:16:24;23.50;93.60
15459;DHT22;59054;48.692;9.136;2022-07-23T07:18:51;23.60;94.00
15459;DHT22;59054;48.692;9.136;2022-07-23T07:21:18;23.70;93.70
15459;DHT22;59054;48.692;9.136;2022-07-23T07:23:46;23.60;94.10
15459;DHT22;59054;48.692;9.136;2022-07-23T07:26:13;23.70;94.10
15459;DHT22;59054;48.692;9.136;2022-07-23T07:28:40;23.70;94.20
15459;DHT22;59054;48.692;9.136;2022-07-23T07:31:07;24.00;94.10
15459;DHT22;59054;48.692;9.136;2022-07-23T07:33:33;24.20;93.40
15459;DHT22;59054;48.692;9.136;2022-07-23T07:36:00;24.20;92.70
15459;DHT22;59054;48.692;9.136;2022-07-23T07:38:27;24.40;92.60
15459;DHT22;59054;48.692;9.136;2022-07-23T07:40:55;24.40;92.00
15459;DHT22;59054;48.692;9.136;2022-07-23T07:43:22;24.50;92.00
15459;DHT22;59054;48.692;9.136;2022-07-23T07:45:50;24.70;91.50
15459;DHT22;59054;48.692;9.136;2022-07-23T07:48:17;24.70;90.80
15459;DHT22;59054;48.692;9.136;2022-07-23T07:50:44;24.60;91.30
15459;DHT22;59054;48.692;9.136;2022-07-23T07:53:11;24.50;90.40
15459;DHT22;59054;48.692;9.136;2022-07-23T07:55:38;24.30;90.90
15459;DHT22;59054;48.692;9.136;2022-07-23T07:58:06;24.50;89.10
15459;DHT22;59054;48.692;9.136;2022-07-23T08:00:33;24.70;89.80
15459;DHT22;59054;48.692;9.136;2022-07-23T08:03:00;25.00;88.40
15459;DHT22;59054;48.692;9.136;2022-07-23T08:05:28;25.30;85.40
15459;DHT22;59054;48.692;9.136;2022-07-23T08:07:55;25.50;84.30
15459;DHT22;59054;48.692;9.136;2022-07-23T08:10:23;25.80;84.00
15459;DHT22;59054;48.692;9.136;2022-07-23T08:12:52;25.60;86.70
15459;DHT22;59054;48.692;9.136;2022-07-23T08:15:23;25.60;87.50
15459;DHT22;59054;48.692;9.136;2022-07-23T08:17:50;25.80;87.50
15459;DHT22;59054;48.692;9.136;2022-07-23T08:20:19;25.90;85.90
15459;DHT22;59054;48.692;9.136;2022-07-23T08:22:48;25.90;84.70
15459;DHT22;59054;48.692;9.136;2022-07-23T08:25:19;25.80;85.40
15459;DHT22;59054;48.692;9.136;2022-07-23T08:27:46;26.00;85.10
15459;DHT22;59054;48.692;9.136;2022-07-23T08:30:14;26.20;83.40
15459;DHT22;59054;48.692;9.136;2022-07-23T08:32:55;26.10;81.80
15459;DHT22;59054;48.692;9.136;2022-07-23T08:35:27;26.10;78.40
15459;DHT22;59054;48.692;9.136;2022-07-23T08:37:55;26.20;75.40
15459;DHT22;59054;48.692;9.136;2022-07-23T08:40:22;26.50;76.20
15459;DHT22;59054;48.692;9.136;2022-07-23T08:42:53;26.50;77.30
15459;DHT22;59054;48.692;9.136;2022-07-23T08:45:21;26.80;77.20
15459;DHT22;59054;48.692;9.136;2022-07-23T08:47:54;26.80;73.20
15459;DHT22;59054;48.692;9.136;2022-07-23T08:50:22;26.80;76.60
15459;DHT22;59054;48.692;9.136;2022-07-23T08:52:52;26.20;75.70
15459;DHT22;59054;48.692;9.136;2022-07-23T08:55:20;26.10;74.50
15459;DHT22;59054;48.692;9.136;2022-07-23T08:57:50;26.40;75.20
15459;DHT22;59054;48.692;9.136;2022-07-23T09:00:19;27.10;74.80
15459;DHT22;59054;48.692;9.136;2022-07-23T09:02:47;27.20;71.70
15459;DHT22;59054;48.692;9.136;2022-07-23T09:05:16;27.30;72.70
15459;DHT22;59054;48.692;9.136;2022-07-23T09:08:04;27.40;73.60
15459;DHT22;59054;48.692;9.136;2022-07-23T09:10:46;27.70;71.90
15459;DHT22;59054;48.692;9.136;2022-07-23T09:13:30;27.60;67.40
15459;DHT22;59054;48.692;9.136;2022-07-23T09:16:03;27.00;69.00
15459;DHT22;59054;48.692;9.136;2022-07-23T09:18:42;26.60;71.30
15459;DHT22;59054;48.692;9.136;2022-07-23T09:21:14;26.60;72.20
15459;DHT22;59054;48.692;9.136;2022-07-23T09:23:43;27.10;72.70
15459;DHT22;59054;48.692;9.136;2022-07-23T09:26:22;27.50;72.40
15459;DHT22;59054;48.692;9.136;2022-07-23T09:28:51;27.80;71.20
15459;DHT22;59054;48.692;9.136;2022-07-23T09:31:18;28.10;70.70
15459;DHT22;59054;48.692;9.136;2022-07-23T09:33:45;28.20;69.20
15459;DHT22;59054;48.692;9.136;2022-07-23T09:36:13;28.40;68.30
15459;DHT22;59054;48.692;9.136;2022-07-23T09:38:48;28.20;67.80
15459;DHT22;59054;48.692;9.136;2022-07-23T09:41:16;28.60;65.40
15459;DHT22;59054;48.692;9.136;2022-07-23T09:46:20;28.80;66.00
15459;DHT22;59054;48.692;9.136;2022-07-23T09:48:48;29.00;64.20
15459;DHT22;59054;48.692;9.136;2022-07-23T09:51:18;28.80;63.40
15459;DHT22;59054;48.692;9.136;2022-07-23T09:53:48;28.80;63.30
15459;DHT22;59054;48.692;9.136;2022-07-23T09:56:15;29.00;62.80
15459;DHT22;59054;48.692;9.136;2022-07-23T09:58:43;29.20;64.10
15459;DHT22;59054;48.692;9.136;2022-07-23T10:01:14;28.50;63.00
15459;DHT22;59054;48.692;9.136;2022-07-23T10:03:41;28.20;64.20
15459;DHT22;59054;48.692;9.136;2022-07-23T10:06:08;28.50;64.80
15459;DHT22;59054;48.692;9.136;2022-07-23T10:08:40;28.20;67.00
15459;DHT22;59054;48.692;9.136;2022-07-23T10:11:08;28.20;67.90
15459;DHT22;59054;48.692;9.136;2022-07-23T10:13:36;28.10;68.10
15459;DHT22;59054;48.692;9.136;2022-07-23T10:16:18;28.20;65.70
15459;DHT22;59054;48.692;9.136;2022-07-23T10:18:45;28.00;65.70
15459;DHT22;59054;48.692;9.136;2022-07-23T10:21:20;28.60;68.20
15459;DHT22;59054;48.692;9.136;2022-07-23T10:24:01;29.40;66.90
15459;DHT22;59054;48.692;9.136;2022-07-23T10:26:35;29.40;67.00
15459;DHT22;59054;48.692;9.136;2022-07-23T10:29:13;29.20;63.00
15459;DHT22;59054;48.692;9.136;2022-07-23T10:31:54;29.10;63.10
15459;DHT22;59054;48.692;9.136;2022-07-23T10:34:27;29.20;63.20
15459;DHT22;59054;48.692;9.136;2022-07-23T10:36:59;29.00;59.90
15459;DHT22;59054;48.692;9.136;2022-07-23T10:39:32;29.20;62.70
15459;DHT22;59054;48.692;9.136;2022-07-23T10:42:10;28.10;63.10
15459;DHT22;59054;48.692;9.136;2022-07-23T10:44:41;28.10;62.40
15459;DHT22;59054;48.692;9.136;2022-07-23T10:47:10;28.80;60.90
15459;DHT22;59054;48.692;9.136;2022-07-23T10:50:24;29.30;59.20
15459;DHT22;59054;48.692;9.136;2022-07-23T10:53:20;29.80;58.90
15459;DHT22;59054;48.692;9.136;2022-07-23T10:55:52;30.40;58.00
15459;DHT22;59054;48.692;9.136;2022-07-23T10:58:21;30.50;57.70
15459;DHT22;59054;48.692;9.136;2022-07-23T11:00:48;30.00;56.90
15459;DHT22;59054;48.692;9.136;2022-07-23T11:03:33;29.70;59.10
15459;DHT22;59054;48.692;9.136;2022-07-23T11:06:04;29.60;58.80
15459;DHT22;59054;48.692;9.136;2022-07-23T11:08:32;29.70;57.30
15459;DHT22;59054;48.692;9.136;2022-07-23T11:11:09;29.00;57.80
15459;DHT22;59054;48.692;9.136;2022-07-23T11:13:47;28.60;60.70
15459;DHT22;59054;48.692;9.136;2022-07-23T11:16:22;28.40;64.60
15459;DHT22;59054;48.692;9.136;2022-07-23T11:19:06;28.30;59.20
15459;DHT22;59054;48.692;9.136;2022-07-23T11:21:51;28.30;60.60
15459;DHT22;59054;48.692;9.136;2022-07-23T11:24:20;28.40;60.30
15459;DHT22;59054;48.692;9.136;2022-07-23T11:26:59;28.50;60.90
15459;DHT22;59054;48.692;9.136;2022-07-23T11:29:48;28.50;61.00
15459;DHT22;59054;48.692;9.136;2022-07-23T11:32:36;28.40;65.40
15459;DHT22;59054;48.692;9.136;2022-07-23T11:35:25;28.50;60.60
15459;DHT22;59054;48.692;9.136;2022-07-23T11:38:02;28.60;59.50
15459;DHT22;59054;48.692;9.136;2022-07-23T11:40:29;28.30;62.00
15459;DHT22;59054;48.692;9.136;2022-07-23T11:42:58;28.10;61.70
15459;DHT22;59054;48.692;9.136;2022-07-23T11:45:33;28.30;62.90
15459;DHT22;59054;48.692;9.136;2022-07-23T11:48:01;29.50;60.80
15459;DHT22;59054;48.692;9.136;2022-07-23T11:50:28;30.60;56.70
15459;DHT22;59054;48.692;9.136;2022-07-23T11:52:56;31.30;56.40
15459;DHT22;59054;48.692;9.136;2022-07-23T11:55:24;32.00;53.80
15459;DHT22;59054;48.692;9.136;2022-07-23T11:57:52;32.40;55.00
15459;DHT22;59054;48.692;9.136;2022-07-23T12:00:22;32.60;51.70
15459;DHT22;59054;48.692;9.136;2022-07-23T12:02:50;32.50;54.80
15459;DHT22;59054;48.692;9.136;2022-07-23T12:05:19;31.80;50.80
15459;DHT22;59054;48.692;9.136;2022-07-23T12:07:48;32.30;50.80
15459;DHT22;59054;48.692;9.136;2022-07-23T12:10:18;33.10;49.60
15459;DHT22;59054;48.692;9.136;2022-07-23T12:12:47;33.10;48.40
15459;DHT22;59054;48.692;9.136;2022-07-23T12:15:17;33.40;49.40
15459;DHT22;59054;48.692;9.136;2022-07-23T12:17:46;32.60;49.60
15459;DHT22;59054;48.692;9.136;2022-07-23T12:20:16;32.40;50.70
15459;DHT22;59054;48.692;9.136;2022-07-23T12:22:44;33.10;47.10
15459;DHT22;59054;48.692;9.136;2022-07-23T12:25:13;33.50;47.30
15459;DHT22;59054;48.692;9.136;2022-07-23T12:27:43;33.30;47.60
15459;DHT22;59054;48.692;9.136;2022-07-23T12:30:31;33.20;48.50
15459;DHT22;59054;48.692;9.136;2022-07-23T12:32:59;33.50;47.10
15459;DHT22;59054;48.692;9.136;2022-07-23T12:35:32;32.80;48.30
15459;DHT22;59054;48.692;9.136;2022-07-23T12:38:02;33.00;46.80
15459;DHT22;59054;48.692;9.136;2022-07-23T12:40:32;33.30;47.00
15459;DHT22;59054;48.692;9.136;2022-07-23T12:43:04;33.70;45.80
15459;DHT22;59054;48.692;9.136;2022-07-23T12:45:46;34.10;44.00
15459;DHT22;59054;48.692;9.136;2022-07-23T12:48:23;34.50;43.60
15459;DHT22;59054;48.692;9.136;2022-07-23T12:50:52;34.20;43.70
15459;DHT22;59054;48.692;9.136;2022-07-23T12:53:21;34.00;45.10
15459;DHT22;59054;48.692;9.136;2022-07-23T12:55:50;33.50;44.60
15459;DHT22;59054;48.692;9.136;2022-07-23T12:58:20;33.10;44.00
15459;DHT22;59054;48.692;9.136;2022-07-23T13:01:02;32.70;44.40
15459;DHT22;59054;48.692;9.136;2022-07-23T13:03:35;31.80;46.50
15459;DHT22;59054;48.692;9.136;2022-07-23T13:06:06;31.50;47.00
15459;DHT22;59054;48.692;9.136;2022-07-23T13:08:34;31.90;49.30
15459;DHT22;59054;48.692;9.136;2022-07-23T13:11:02;32.40;47.40
15459;DHT22;59054;48.692;9.136;2022-07-23T13:13:33;32.40;46.20
15459;DHT22;59054;48.692;9.136;2022-07-23T13:16:01;31.90;47.10
15459;DHT22;59054;48.692;9.136;2022-07-23T13:18:29;31.20;48.20
15459;DHT22;59054;48.692;9.136;2022-07-23T13:20:56;30.50;53.60
15459;DHT22;59054;48.692;9.136;2022-07-23T13:23:23;30.10;52.00
15459;DHT22;59054;48.692;9.136;2022-07-23T13:25:51;30.60;52.20
15459;DHT22;59054;48.692;9.136;2022-07-23T13:28:23;31.30;49.30
15459;DHT22;59054;48.692;9.136;2022-07-23T13:30:52;31.80;50.40
15459;DHT22;59054;48.692;9.136;2022-07-23T13:33:21;32.40;49.40
15459;DHT22;59054;48.692;9.136;2022-07-23T13:35:49;32.90;46.00
15459;DHT22;59054;48.692;9.136;2022-07-23T13:38:17;33.10;47.90
15459;DHT22;59054;48.692;9.136;2022-07-23T13:40:50;33.70;46.20
15459;DHT22;59054;48.692;9.136;2022-07-23T13:43:19;33.90;44.00
15459;DHT22;59054;48.692;9.136;2022-07-23T13:45:46;33.90;42.60
15459;DHT22;59054;48.692;9.136;2022-07-23T13:48:15;34.20;42.60
15459;DHT22;59054;48.692;9.136;2022-07-23T13:50:43;34.40;43.70
15459;DHT22;59054;48.692;9.136;2022-07-23T13:53:12;34.50;41.60
15459;DHT22;59054;48.692;9.136;2022-07-23T13:55:40;34.40;40.50
15459;DHT22;59054;48.692;9.136;2022-07-23T13:58:08;33.80;42.00
15459;DHT22;59054;48.692;9.136;2022-07-23T14:00:37;32.90;43.60
15459;DHT22;59054;48.692;9.136;2022-07-23T14:03:05;32.00;45.30
15459;DHT22;59054;48.692;9.136;2022-07-23T14:05:34;31.60;45.20
15459;DHT22;59054;48.692;9.136;2022-07-23T14:08:01;31.00;47.30
15459;DHT22;59054;48.692;9.136;2022-07-23T14:10:28;30.70;48.90
15459;DHT22;59054;48.692;9.136;2022-07-23T14:12:55;30.30;49.50
15459;DHT22;59054;48.692;9.136;2022-07-23T14:15:24;30.30;48.70
15459;DHT22;59054;48.692;9.136;2022-07-23T14:17:52;30.10;49.10
15459;DHT22;59054;48.692;9.136;2022-07-23T14:20:20;30.00;49.40
15459;DHT22;59054;48.692;9.136;2022-07-23T14:22:48;30.00;50.00
15459;DHT22;59054;48.692;9.136;2022-07-23T14:25:16;29.80;49.30
15459;DHT22;59054;48.692;9.136;2022-07-23T14:27:43;29.80;49.70
15459;DHT22;59054;48.692;9.136;2022-07-23T14:30:12;29.70;50.00
15459;DHT22;59054;48.692;9.136;2022-07-23T14:32:40;29.60;50.50
15459;DHT22;59054;48.692;9.136;2022-07-23T14:35:07;29.60;50.50
15459;DHT22;59054;48.692;9.136;2022-07-23T14:37:34;29.80;51.00
15459;DHT22;59054;48.692;9.136;2022-07-23T14:40:04;30.10;51.80
15459;DHT22;59054;48.692;9.136;2022-07-23T14:42:31;30.60;50.40
15459;DHT22;59054;48.692;9.136;2022-07-23T14:44:58;30.80;48.70
15459;DHT22;59054;48.692;9.136;2022-07-23T14:47:25;31.50;46.60
15459;DHT22;59054;48.692;9.136;2022-07-23T14:49:51;31.50;45.40
15459;DHT22;59054;48.692;9.136;2022-07-23T14:52:19;30.90;45.60
15459;DHT22;59054;48.692;9.136;2022-07-23T14:54:45;30.40;47.60
15459;DHT22;59054;48.692;9.136;2022-07-23T14:57:15;30.20;49.00
15459;DHT22;59054;48.692;9.136;2022-07-23T14:59:43;29.40;46.70
15459;DHT22;59054;48.692;9.136;2022-07-23T15:02:10;29.20;48.20
15459;DHT22;59054;48.692;9.136;2022-07-23T15:04:37;29.20;49.70
15459;DHT22;59054;48.692;9.136;2022-07-23T15:07:04;29.20;50.50
15459;DHT22;59054;48.692;9.136;2022-07-23T15:09:31;29.20;50.30
15459;DHT22;59054;48.692;9.136;2022-07-23T15:11:58;29.00;49.50
15459;DHT22;59054;48.692;9.136;2022-07-23T15:14:26;29.00;49.90
15459;DHT22;59054;48.692;9.136;2022-07-23T15:16:53;28.90;50.50
15459;DHT22;59054;48.692;9.136;2022-07-23T15:19:20;28.60;50.20
15459;DHT22;59054;48.692;9.136;2022-07-23T15:21:47;28.30;50.60
15459;DHT22;59054;48.692;9.136;2022-07-23T15:24:15;28.30;51.70
15459;DHT22;59054;48.692;9.136;2022-07-23T15:26:41;28.20;51.80
15459;DHT22;59054;48.692;9.136;2022-07-23T15:29:08;28.20;50.80
15459;DHT22;59054;48.692;9.136;2022-07-23T15:31:37;28.30;50.90
15459;DHT22;59054;48.692;9.136;2022-07-23T15:34:03;28.60;49.20
15459;DHT22;59054;48.692;9.136;2022-07-23T15:36:31;28.70;49.90
15459;DHT22;59054;48.692;9.136;2022-07-23T15:38:58;28.80;52.10
15459;DHT22;59054;48.692;9.136;2022-07-23T15:41:24;28.80;53.60
15459;DHT22;59054;48.692;9.136;2022-07-23T15:43:52;28.80;54.90